Rechercher aéroport 
image banner adimage banner adimage banner ad
image banner ad

KOKB - Bob Maxwell Memorial Airfield

Situé à Oceanside, United States

ICAO - OKB, IATA -

Données fournies par Airmate  

Information générale

Coordonnées: N33°13'5" W117°21'5"
Élévation : 28 feet MSL.
Variation magnétique : 13° East
Voir autres Aéroports à California

Données opérationnelles

Special qualification required
Heure actuelle UTC:
Heure actuelle locale:
Météo
METAR: KOKB 262223Z AUTO 24007KT 9SM OVC014 22/18 A2994 RMK AO2 T02220183
Voir NOTAMs / SUP AIP / TFR affectant cet aéroport [VIEW]
Fréquences de communication: [VIEW]

Pistes:

Identifiant RWYQFULongueur (ft)Largeur (ft)SurfaceLDA (ft)
0680°271275ASPH
24260°271275ASPH

Coordonnées de l'aéroport

Adresse: Oceanside United States

Vue satellite de KOKB